createdAt,value
2019-02-07T00:03:44.443Z,87.87
2019-02-07T00:06:13.082Z,87.78
2019-02-07T00:08:41.644Z,88.22
2019-02-07T00:11:10.253Z,88.74
2019-02-07T00:13:39.021Z,89.12
2019-02-07T00:16:07.991Z,89.32
2019-02-07T00:18:36.954Z,89.31
2019-02-07T00:21:05.721Z,89.58
2019-02-07T00:23:34.280Z,89.74
2019-02-07T00:26:02.900Z,90.15
2019-02-07T00:28:31.450Z,90.46
2019-02-07T00:31:02.145Z,91.06
2019-02-07T00:33:32.486Z,91.18
2019-02-07T00:36:01.317Z,91.52
2019-02-07T00:38:30.375Z,91.95
2019-02-07T00:40:58.939Z,92.25
2019-02-07T00:43:27.579Z,92.25
2019-02-07T00:45:56.212Z,92.20
2019-02-07T00:48:24.803Z,92.30
2019-02-07T00:50:53.358Z,92.54
2019-02-07T00:53:21.935Z,92.37
2019-02-07T00:55:50.649Z,92.44
2019-02-07T00:58:19.228Z,92.37
2019-02-07T01:00:47.869Z,92.46
2019-02-07T01:03:16.446Z,92.54
2019-02-07T01:05:45.260Z,92.61
2019-02-07T01:08:14.240Z,92.55
2019-02-07T01:10:42.957Z,92.61
2019-02-07T01:13:11.602Z,92.53
2019-02-07T01:15:40.168Z,92.45
2019-02-07T01:18:09.351Z,92.22
2019-02-07T01:20:38.850Z,91.81
2019-02-07T01:23:07.510Z,91.87
2019-02-07T01:25:36.133Z,91.72
2019-02-07T01:28:08.025Z,90.87
2019-02-07T01:30:36.721Z,90.35
2019-02-07T01:33:05.411Z,90.42
2019-02-07T01:35:34.453Z,89.91
2019-02-07T01:38:03.062Z,90.15
2019-02-07T01:40:33.163Z,90.52
2019-02-07T01:43:03.386Z,90.21
2019-02-07T01:45:35.276Z,90.24
2019-02-07T01:48:03.991Z,90.61
2019-02-07T01:50:33.013Z,90.63
2019-02-07T01:53:03.171Z,90.37
2019-02-07T01:55:33.427Z,90.15
2019-02-07T01:58:05.219Z,90.00
2019-02-07T02:00:36.897Z,90.18
2019-02-07T02:03:05.933Z,90.04
2019-02-07T02:05:34.627Z,89.96
2019-02-07T02:08:03.236Z,89.91
2019-02-07T02:10:34.727Z,89.87
2019-02-07T02:13:03.337Z,90.17
2019-02-07T02:15:35.135Z,90.32
2019-02-07T02:18:04.139Z,89.74
2019-02-07T02:20:35.939Z,89.40
2019-02-07T02:23:04.651Z,89.63
2019-02-07T02:25:33.236Z,89.99
2019-02-07T02:28:01.971Z,89.95
2019-02-07T02:30:35.847Z,89.91
2019-02-07T02:33:05.333Z,89.73
2019-02-07T02:35:34.246Z,89.44
2019-02-07T02:38:02.797Z,88.88
2019-02-07T02:40:31.374Z,89.39
2019-02-07T02:43:00.650Z,89.22
2019-02-07T02:45:37.466Z,88.11
2019-02-07T02:48:02.255Z,88.41
2019-02-07T02:50:30.925Z,88.57
2019-02-07T02:52:59.538Z,88.40
2019-02-07T02:55:32.435Z,88.52
2019-02-07T02:58:03.710Z,88.55
2019-02-07T03:03:28.850Z,88.05
2019-02-07T03:05:59.163Z,88.08
2019-02-07T03:08:35.120Z,87.26
2019-02-07T03:11:22.995Z,87.18
2019-02-07T03:13:53.291Z,86.67
2019-02-07T03:16:32.459Z,86.48
2019-02-07T03:22:06.352Z,87.00
2019-02-07T03:24:45.348Z,87.06
2019-02-07T03:27:31.538Z,86.84
2019-02-07T03:32:55.062Z,86.42
2019-02-07T03:38:06.606Z,86.82
2019-02-07T03:40:43.102Z,87.64
2019-02-07T03:43:31.204Z,87.37
2019-02-07T03:46:07.120Z,87.23
2019-02-07T03:48:37.403Z,87.84
2019-02-07T03:51:11.034Z,87.36
2019-02-07T03:53:53.236Z,87.61
2019-02-07T03:56:39.927Z,87.26
2019-02-07T03:59:16.363Z,87.71
2019-02-07T04:01:58.649Z,88.02
2019-02-07T04:04:34.628Z,88.51
2019-02-07T04:07:10.616Z,89.01
2019-02-07T04:09:52.647Z,89.11
2019-02-07T04:12:39.294Z,88.50
2019-02-07T04:15:09.839Z,88.77
2019-02-07T04:17:43.189Z,88.54
2019-02-07T04:20:16.642Z,88.68
2019-02-07T04:22:55.672Z,88.52
2019-02-07T04:25:32.169Z,88.74
2019-02-07T04:28:20.237Z,89.00
2019-02-07T04:30:53.261Z,89.25
2019-02-07T04:36:27.771Z,89.84
2019-02-07T04:39:14.722Z,89.70
2019-02-07T04:41:48.023Z,89.90
2019-02-07T04:44:27.104Z,90.04
2019-02-07T04:47:03.094Z,89.88
2019-02-07T04:49:50.732Z,90.31
2019-02-07T04:52:23.908Z,90.49
2019-02-07T04:54:56.575Z,90.35
2019-02-07T04:57:38.684Z,89.62
2019-02-07T05:00:18.176Z,89.68
2019-02-07T05:02:54.239Z,90.09
2019-02-07T05:05:27.193Z,89.61
2019-02-07T05:08:06.147Z,89.75
2019-02-07T05:10:36.496Z,89.87
2019-02-07T05:16:14.389Z,90.08
2019-02-07T05:18:47.605Z,89.40
2019-02-07T05:21:33.144Z,89.79
2019-02-07T05:24:10.636Z,89.70
2019-02-07T05:26:49.804Z,89.01
2019-02-07T05:29:38.077Z,89.05
2019-02-07T05:32:08.566Z,89.15
2019-02-07T05:34:38.819Z,88.99
2019-02-07T05:37:11.779Z,89.33
2019-02-07T05:39:50.554Z,88.89
2019-02-07T05:42:37.065Z,88.96
2019-02-07T05:45:22.719Z,88.12
2019-02-07T05:47:55.365Z,88.19
2019-02-07T05:50:31.337Z,88.04
2019-02-07T05:53:13.567Z,87.69
2019-02-07T05:55:44.229Z,87.72
2019-02-07T05:58:17.877Z,87.80
2019-02-07T06:00:54.162Z,88.16
2019-02-07T06:03:27.587Z,88.48
2019-02-07T06:06:00.707Z,88.38
2019-02-07T06:08:43.157Z,88.91
2019-02-07T06:11:13.927Z,89.27
2019-02-07T06:13:44.276Z,89.25
2019-02-07T06:16:20.264Z,89.46
2019-02-07T06:18:50.479Z,89.51
2019-02-07T06:21:33.092Z,89.26
2019-02-07T06:24:04.822Z,89.03
2019-02-07T06:26:40.803Z,89.54
2019-02-07T06:29:13.797Z,89.63
2019-02-07T06:31:59.110Z,89.91
2019-02-07T06:34:47.478Z,89.95
2019-02-07T06:37:17.735Z,89.81
2019-02-07T06:40:03.813Z,89.67
2019-02-07T06:42:50.607Z,89.54
2019-02-07T06:45:20.816Z,89.49
2019-02-07T06:47:53.943Z,89.39
2019-02-07T06:50:27.023Z,89.38
2019-02-07T06:53:13.814Z,89.62
2019-02-07T06:55:49.844Z,89.45
2019-02-07T06:58:23.117Z,89.02
2019-02-07T07:00:53.335Z,88.69
2019-02-07T07:03:26.288Z,89.01
2019-02-07T07:05:56.594Z,88.65
2019-02-07T07:08:42.184Z,87.44
2019-02-07T07:11:12.400Z,87.21
2019-02-07T07:13:54.900Z,86.65
2019-02-07T07:16:25.169Z,86.34
2019-02-07T07:18:55.729Z,86.70
2019-02-07T07:21:25.974Z,86.45
2019-02-07T07:23:56.248Z,86.00
2019-02-07T07:26:44.830Z,86.36
2019-02-07T07:32:23.284Z,85.73
2019-02-07T07:34:54.003Z,86.26
2019-02-07T07:37:42.175Z,84.78
2019-02-07T07:40:24.530Z,84.76
2019-02-07T07:42:55.222Z,84.99
2019-02-07T07:45:25.422Z,85.36
2019-02-07T07:48:11.899Z,84.71
2019-02-07T07:50:53.765Z,83.41
2019-02-07T07:53:36.106Z,83.16
2019-02-07T07:56:13.153Z,84.23
2019-02-07T07:59:01.382Z,82.96
2019-02-07T08:01:43.721Z,83.14
2019-02-07T08:04:13.971Z,83.55
2019-02-07T08:06:56.398Z,82.63
2019-02-07T08:09:41.675Z,82.99
2019-02-07T08:12:11.929Z,82.54
2019-02-07T08:14:54.180Z,81.32
2019-02-07T08:17:47.491Z,81.50
2019-02-07T08:20:24.263Z,80.55
2019-02-07T08:22:57.204Z,80.34
2019-02-07T08:25:43.819Z,79.67
2019-02-07T08:28:16.732Z,79.36
2019-02-07T08:30:58.655Z,79.13
2019-02-07T08:33:32.358Z,78.27
2019-02-07T08:36:05.764Z,78.66
2019-02-07T08:38:49.906Z,78.34
2019-02-07T08:41:25.922Z,77.36
2019-02-07T08:44:17.603Z,77.23
2019-02-07T08:46:47.913Z,76.55
2019-02-07T08:49:32.223Z,76.61
2019-02-07T08:52:02.566Z,75.03
2019-02-07T08:54:41.929Z,76.98
2019-02-07T08:57:12.174Z,76.80
2019-02-07T08:59:42.417Z,76.42
2019-02-07T09:02:13.019Z,76.31
2019-02-07T09:04:43.220Z,76.22
2019-02-07T09:07:22.406Z,75.30
2019-02-07T09:10:08.546Z,75.64
2019-02-07T09:12:56.881Z,75.15
2019-02-07T09:18:12.783Z,75.25
2019-02-07T09:20:46.932Z,75.43
2019-02-07T09:23:33.627Z,75.90
2019-02-07T09:26:09.762Z,75.11
2019-02-07T09:28:40.401Z,75.18
2019-02-07T09:31:10.756Z,75.74
2019-02-07T09:33:44.194Z,76.00
2019-02-07T09:36:14.390Z,75.98
2019-02-07T09:39:03.581Z,75.12
2019-02-07T09:41:43.840Z,74.46
2019-02-07T09:46:55.827Z,74.67
2019-02-07T09:49:43.974Z,74.75
2019-02-07T09:52:14.234Z,74.04
2019-02-07T09:54:56.857Z,73.16
2019-02-07T09:57:30.419Z,72.05
2019-02-07T10:00:09.330Z,71.70
2019-02-07T10:02:39.557Z,71.70
2019-02-07T10:08:09.115Z,73.08
2019-02-07T10:10:39.322Z,73.43
2019-02-07T10:13:25.883Z,72.97
2019-02-07T10:16:02.243Z,73.25
2019-02-07T10:18:50.762Z,73.23
2019-02-07T10:21:37.706Z,70.85
2019-02-07T10:24:10.784Z,71.87
2019-02-07T10:26:59.094Z,72.03
2019-02-07T10:29:29.692Z,70.52
2019-02-07T10:32:06.064Z,69.00
2019-02-07T10:34:45.109Z,71.16
2019-02-07T10:37:21.546Z,70.29
2019-02-07T10:39:54.807Z,70.90
2019-02-07T10:42:40.544Z,69.33
2019-02-07T10:45:13.815Z,70.48
2019-02-07T10:48:02.819Z,68.94
2019-02-07T10:50:36.078Z,68.45
2019-02-07T10:53:06.340Z,68.66
2019-02-07T10:55:36.635Z,68.04
2019-02-07T10:58:13.270Z,68.58
2019-02-07T11:00:43.562Z,67.16
2019-02-07T11:03:33.544Z,65.88
2019-02-07T11:06:15.155Z,64.95
2019-02-07T11:08:45.422Z,64.95
2019-02-07T11:11:27.713Z,64.10
2019-02-07T11:13:58.261Z,62.88
2019-02-07T11:16:31.352Z,62.44
2019-02-07T11:19:21.292Z,63.05
2019-02-07T11:21:48.588Z,61.66
2019-02-07T11:24:25.323Z,60.60
2019-02-07T11:27:12.029Z,60.60
2019-02-07T11:29:44.659Z,60.46
2019-02-07T11:32:14.968Z,61.74
2019-02-07T11:34:48.004Z,60.71
2019-02-07T11:37:34.560Z,59.91
2019-02-07T11:40:07.729Z,62.53
2019-02-07T11:42:37.954Z,62.53
2019-02-07T11:45:17.305Z,59.35
2019-02-07T11:47:47.518Z,59.17
2019-02-07T11:50:35.332Z,60.37
2019-02-07T11:53:20.397Z,60.48
2019-02-07T11:58:42.400Z,59.42
2019-02-07T12:01:24.810Z,59.42
2019-02-07T12:04:00.883Z,62.04
2019-02-07T12:06:46.218Z,59.51
2019-02-07T12:09:28.581Z,62.14
2019-02-07T12:12:04.894Z,60.56
2019-02-07T12:14:37.835Z,59.92
2019-02-07T12:17:08.546Z,60.80
2019-02-07T12:19:41.586Z,60.37
2019-02-07T12:22:14.808Z,59.36
2019-02-07T12:24:50.809Z,59.36
2019-02-07T12:27:30.417Z,59.77
2019-02-07T12:30:00.713Z,59.77
2019-02-07T12:32:33.901Z,60.63
2019-02-07T12:35:07.579Z,60.90
2019-02-07T12:37:53.890Z,61.54
2019-02-07T12:40:42.084Z,61.21
2019-02-07T12:43:12.359Z,61.21
2019-02-07T12:45:42.579Z,60.99
2019-02-07T12:48:12.841Z,62.12
2019-02-07T12:51:00.538Z,61.50
2019-02-07T12:53:39.504Z,62.07
2019-02-07T12:56:22.225Z,61.48
2019-02-07T12:59:04.584Z,61.22
2019-02-07T13:01:38.522Z,62.55
2019-02-07T13:04:28.006Z,62.02
2019-02-07T13:07:14.050Z,62.02
2019-02-07T13:09:46.794Z,60.15
2019-02-07T13:12:19.836Z,59.57
2019-02-07T13:14:56.797Z,59.57
2019-02-07T13:17:29.890Z,61.28
2019-02-07T13:20:03.033Z,61.54
2019-02-07T13:22:42.186Z,61.73
2019-02-07T13:25:12.985Z,62.39
2019-02-07T13:27:52.362Z,61.06
2019-02-07T13:30:28.743Z,62.04
2019-02-07T13:32:58.962Z,63.33
2019-02-07T13:35:38.188Z,62.24
2019-02-07T13:38:11.268Z,63.20
2019-02-07T13:40:53.307Z,63.11
2019-02-07T13:43:29.259Z,62.55
2019-02-07T13:46:16.640Z,61.70
2019-02-07T13:49:03.381Z,61.70
2019-02-07T13:51:52.740Z,61.03
2019-02-07T13:54:28.897Z,61.67
2019-02-07T13:57:02.197Z,61.18
2019-02-07T13:59:38.591Z,62.49
2019-02-07T14:02:19.490Z,63.21
2019-02-07T14:04:49.758Z,63.22
2019-02-07T14:07:20.088Z,62.56
2019-02-07T14:09:59.099Z,62.44
2019-02-07T14:12:35.263Z,62.44
2019-02-07T14:15:12.982Z,62.75
2019-02-07T14:17:45.852Z,63.65
2019-02-07T14:20:25.268Z,61.64
2019-02-07T14:22:58.497Z,61.64
2019-02-07T14:25:38.133Z,62.57
2019-02-07T14:28:24.526Z,62.47
2019-02-07T14:31:06.124Z,62.68
2019-02-07T14:33:35.428Z,63.80
2019-02-07T14:36:08.562Z,63.80
2019-02-07T14:38:47.795Z,62.59
2019-02-07T14:44:26.757Z,63.82
2019-02-07T14:46:58.146Z,64.67
2019-02-07T14:49:27.106Z,68.42
2019-02-07T14:51:56.092Z,69.84
2019-02-07T14:54:25.047Z,73.26
2019-02-07T14:56:53.630Z,75.98
2019-02-07T14:59:22.256Z,75.98
2019-02-07T15:01:50.839Z,75.71
2019-02-07T15:04:19.803Z,75.91
2019-02-07T15:06:48.370Z,75.48
2019-02-07T15:09:17.280Z,77.20
2019-02-07T15:11:45.936Z,77.20
2019-02-07T15:14:14.562Z,75.23
2019-02-07T15:16:43.137Z,75.23
2019-02-07T15:19:11.957Z,73.04
2019-02-07T15:21:40.540Z,73.04
2019-02-07T15:24:09.407Z,72.35
2019-02-07T15:26:38.404Z,72.83
2019-02-07T15:29:07.407Z,74.65
2019-02-07T15:31:36.051Z,74.65
2019-02-07T15:34:05.052Z,74.58
2019-02-07T15:36:34.055Z,76.14
2019-02-07T15:39:03.073Z,75.80
2019-02-07T15:41:33.166Z,76.24
2019-02-07T15:44:03.641Z,75.34
2019-02-07T15:46:32.287Z,75.93
2019-02-07T15:49:00.844Z,75.93
2019-02-07T15:51:31.482Z,77.44
2019-02-07T15:53:59.784Z,78.23
2019-02-07T15:56:36.272Z,79.87
2019-02-07T15:59:09.934Z,79.87
2019-02-07T16:01:40.411Z,80.84
2019-02-07T16:04:13.428Z,81.18
2019-02-07T16:06:42.423Z,81.18
2019-02-07T16:09:11.493Z,81.47
2019-02-07T16:11:40.545Z,80.44
2019-02-07T16:14:12.517Z,81.56
2019-02-07T16:16:48.249Z,81.20
2019-02-07T16:19:18.154Z,80.87
2019-02-07T16:21:46.935Z,80.70
2019-02-07T16:24:16.186Z,80.64
2019-02-07T16:26:44.726Z,81.44
2019-02-07T16:29:13.654Z,80.97
2019-02-07T16:31:42.656Z,81.72
2019-02-07T16:34:11.760Z,81.61
2019-02-07T16:36:40.661Z,81.37
2019-02-07T16:39:09.881Z,80.44
2019-02-07T16:41:38.419Z,81.00
2019-02-07T16:44:07.143Z,81.01
2019-02-07T16:46:36.185Z,79.92
2019-02-07T16:49:05.228Z,80.62
2019-02-07T16:51:34.240Z,80.83
2019-02-07T16:54:02.821Z,80.26
2019-02-07T16:56:31.379Z,80.26
2019-02-07T16:59:02.257Z,79.86
2019-02-07T17:01:30.822Z,79.95
2019-02-07T17:04:00.696Z,80.42
2019-02-07T17:06:29.850Z,79.27
2019-02-07T17:08:58.434Z,79.27
2019-02-07T17:11:26.984Z,79.05
2019-02-07T17:13:55.634Z,79.27
2019-02-07T17:16:24.193Z,79.34
2019-02-07T17:18:53.173Z,78.81
2019-02-07T17:21:22.058Z,79.63
2019-02-07T17:23:50.642Z,80.12
2019-02-07T17:26:19.191Z,81.67
2019-02-07T17:28:47.822Z,80.93
2019-02-07T17:31:16.807Z,81.10
2019-02-07T17:33:45.393Z,80.96
2019-02-07T17:36:14.475Z,81.76
2019-02-07T17:38:43.215Z,81.75
2019-02-07T17:41:14.637Z,81.64
2019-02-07T17:43:43.212Z,82.34
2019-02-07T17:46:12.089Z,81.98
2019-02-07T17:48:40.990Z,82.64
2019-02-07T17:51:09.556Z,82.94
2019-02-07T17:53:38.140Z,82.89
2019-02-07T17:56:06.837Z,82.83
2019-02-07T17:58:35.561Z,82.47
2019-02-07T18:01:07.643Z,82.67
2019-02-07T18:03:36.646Z,83.07
2019-02-07T18:06:06.373Z,83.41
2019-02-07T18:08:38.513Z,83.33
2019-02-07T18:11:07.196Z,82.72
2019-02-07T18:13:35.895Z,82.56
2019-02-07T18:16:04.719Z,82.55
2019-02-07T18:18:33.277Z,82.93
2019-02-07T18:21:04.762Z,82.64
2019-02-07T18:23:33.328Z,81.68
2019-02-07T18:26:04.924Z,82.30
2019-02-07T18:28:33.541Z,82.24
2019-02-07T18:31:02.198Z,83.00
2019-02-07T18:33:31.243Z,83.48
2019-02-07T18:36:01.631Z,83.52
2019-02-07T18:38:33.085Z,83.75
2019-02-07T18:41:03.563Z,83.97
2019-02-07T18:43:32.207Z,83.90
2019-02-07T18:46:01.194Z,84.88
2019-02-07T18:48:32.321Z,84.82
2019-02-07T18:51:00.903Z,85.29
2019-02-07T18:53:32.144Z,85.27
2019-02-07T18:56:01.003Z,85.89
2019-02-07T18:58:32.175Z,85.76
2019-02-07T19:01:00.882Z,85.61
2019-02-07T19:03:30.675Z,86.17
2019-02-07T19:05:59.209Z,86.05
2019-02-07T19:08:27.769Z,86.35
2019-02-07T19:10:56.446Z,86.27
2019-02-07T19:13:25.003Z,86.54
2019-02-07T19:15:57.132Z,86.61
2019-02-07T19:18:25.705Z,86.93
2019-02-07T19:20:54.293Z,87.10
2019-02-07T19:23:23.049Z,86.55
2019-02-07T19:25:51.626Z,86.88
2019-02-07T19:28:20.194Z,87.23
2019-02-07T19:30:48.893Z,87.77
2019-02-07T19:33:17.544Z,88.29
2019-02-07T19:35:46.129Z,88.46
2019-02-07T19:38:14.896Z,88.57
2019-02-07T19:40:43.619Z,88.92
2019-02-07T19:43:12.179Z,89.02
2019-02-07T19:45:40.768Z,88.94
2019-02-07T19:48:09.772Z,88.94
2019-02-07T19:50:38.350Z,88.94
2019-02-07T19:53:07.230Z,88.59
2019-02-07T19:55:36.348Z,88.47
2019-02-07T19:58:05.601Z,88.43
2019-02-07T20:00:35.202Z,88.54
2019-02-07T20:03:03.902Z,88.82
2019-02-07T20:05:34.472Z,88.89
2019-02-07T20:08:03.389Z,89.23
2019-02-07T20:10:34.831Z,89.40
2019-02-07T20:13:03.396Z,89.86
2019-02-07T20:15:40.199Z,89.91
2019-02-07T20:18:09.996Z,90.05
2019-02-07T20:20:39.420Z,90.32
2019-02-07T20:23:09.323Z,90.49
2019-02-07T20:25:38.512Z,90.88
2019-02-07T20:28:07.173Z,91.12
2019-02-07T20:30:38.550Z,91.20
2019-02-07T20:33:08.249Z,91.48
2019-02-07T20:35:39.994Z,91.86
2019-02-07T20:38:09.994Z,92.06
2019-02-07T20:40:38.742Z,92.12
2019-02-07T20:43:07.857Z,92.21
2019-02-07T20:45:36.586Z,92.36
2019-02-07T20:48:06.785Z,92.45
2019-02-07T20:50:35.369Z,92.48
2019-02-07T20:53:05.338Z,92.62
2019-02-07T20:55:33.900Z,92.54
2019-02-07T20:58:05.897Z,92.57
2019-02-07T21:00:39.093Z,92.62
2019-02-07T21:03:08.110Z,92.82
2019-02-07T21:05:37.401Z,93.20
2019-02-07T21:08:06.242Z,93.18
2019-02-07T21:10:37.283Z,93.21
2019-02-07T21:13:06.572Z,93.32
2019-02-07T21:15:35.565Z,93.34
2019-02-07T21:18:05.216Z,93.48
2019-02-07T21:20:33.889Z,93.75
2019-02-07T21:23:05.256Z,93.78
2019-02-07T21:25:45.774Z,93.72
2019-02-07T21:28:15.715Z,93.84
2019-02-07T21:30:44.798Z,94.04
2019-02-07T21:33:16.039Z,94.13
2019-02-07T21:35:45.072Z,94.26
2019-02-07T21:38:14.731Z,94.07
2019-02-07T21:40:44.185Z,93.80
2019-02-07T21:43:13.558Z,93.42
2019-02-07T21:45:44.061Z,93.07
2019-02-07T21:48:33.586Z,93.05
2019-02-07T21:51:02.559Z,93.00
2019-02-07T21:53:33.685Z,92.88
2019-02-07T21:56:02.254Z,93.08
2019-02-07T21:58:32.572Z,93.21
2019-02-07T22:01:04.150Z,93.18
2019-02-07T22:03:36.011Z,93.15
2019-02-07T22:06:04.818Z,93.05
2019-02-07T22:08:33.776Z,93.15
2019-02-07T22:11:03.873Z,93.04
2019-02-07T22:13:34.000Z,93.13
2019-02-07T22:16:05.886Z,93.22
2019-02-07T22:18:34.476Z,93.33
2019-02-07T22:21:03.037Z,93.31
2019-02-07T22:23:34.923Z,93.34
2019-02-07T22:26:03.498Z,93.29
2019-02-07T22:28:32.502Z,92.89
2019-02-07T22:31:04.507Z,92.49
2019-02-07T22:33:33.244Z,92.62
2019-02-07T22:36:04.829Z,92.04
2019-02-07T22:38:33.593Z,91.50
2019-02-07T22:41:02.166Z,91.67
2019-02-07T22:43:30.740Z,91.22
2019-02-07T22:46:00.561Z,90.95
2019-02-07T22:48:29.167Z,91.14
2019-02-07T22:50:57.721Z,90.92
2019-02-07T22:53:26.370Z,90.89
2019-02-07T22:55:54.959Z,90.53
2019-02-07T22:58:26.494Z,90.48
2019-02-07T23:01:03.832Z,90.29
2019-02-07T23:03:33.937Z,90.46
2019-02-07T23:06:05.795Z,90.09
2019-02-07T23:08:34.488Z,90.07
2019-02-07T23:11:03.211Z,89.60
2019-02-07T23:13:34.690Z,89.39
2019-02-07T23:16:03.512Z,89.42
2019-02-07T23:18:32.067Z,89.49
2019-02-07T23:21:02.394Z,89.75
2019-02-07T23:23:31.092Z,89.69
2019-02-07T23:25:59.672Z,89.75
2019-02-07T23:28:28.239Z,90.01
2019-02-07T23:30:56.820Z,90.03
2019-02-07T23:33:25.449Z,90.04
2019-02-07T23:35:54.034Z,90.09
2019-02-07T23:38:22.880Z,90.16
2019-02-07T23:40:51.464Z,90.57
2019-02-07T23:43:20.091Z,90.65
2019-02-07T23:45:48.683Z,90.54
2019-02-07T23:48:17.238Z,90.59
2019-02-07T23:50:45.818Z,90.40
2019-02-07T23:53:15.366Z,90.15
2019-02-07T23:55:44.216Z,89.89
2019-02-07T23:58:13.243Z,89.90
